Time;durP1;ratioP1;P1;durP2;ratioP2;P2;SDS_P1;SDS_P2;PMS_P1;PMS_P2;Temp;Humidity;BMP_temperature;BMP_pressure;BME280_temperature;BME280_humidity;BME280_pressure;Samples;Min_cycle;Max_cycle;Signal;HPM_P1;HPM_P2
2022/08/02 00:00:50;;;;;;;9.7;13;;;;;;;18.1;100;98540;;;;
2022/08/02 00:11:50;;;;;;;9.7;13;;;;;;;18.1;100;98550;;;;
2022/08/02 00:22:50;;;;;;;9.2;16.2;;;;;;;18.1;100;98550;;;;
2022/08/02 00:32:50;;;;;;;9.2;16.2;;;;;;;18.1;100;98560;;;;
2022/08/02 00:43:50;;;;;;;9.2;16.2;;;;;;;18.3;100;98550;;;;
2022/08/02 00:54:50;;;;;;;8.9;12.9;;;;;;;18.3;100;98570;;;;
2022/08/02 01:06:54;;;;;;;8.9;12.9;;;;;;;18.3;100;98580;;;;
2022/08/02 01:15:50;;;;;;;8.9;12.9;;;;;;;18.2;100;98590;;;;
2022/08/02 01:26:50;;;;;;;7.3;8.9;;;;;;;18.3;100;98600;;;;
2022/08/02 01:36:50;;;;;;;7.3;8.9;;;;;;;18.4;100;98600;;;;
2022/08/02 01:47:50;;;;;;;7.3;8.9;;;;;;;18.5;100;98600;;;;
2022/08/02 01:58:50;;;;;;;8.2;12.3;;;;;;;18.5;100;98610;;;;
2022/08/02 02:09:50;;;;;;;8.2;12.3;;;;;;;18.4;100;98610;;;;
2022/08/02 02:20:50;;;;;;;8.2;12.3;;;;;;;18.5;100;98610;;;;
2022/08/02 02:30:50;;;;;;;8.9;11;;;;;;;18.5;100;98610;;;;
2022/08/02 02:41:50;;;;;;;8.9;11;;;;;;;18.5;100;98610;;;;
2022/08/02 02:51:50;;;;;;;8.9;11;;;;;;;18.5;100;98610;;;;
2022/08/02 03:01:50;;;;;;;10.8;15.7;;;;;;;18.5;100;98620;;;;
2022/08/02 03:12:50;;;;;;;10.8;15.7;;;;;;;18.5;100;98620;;;;
2022/08/02 03:23:50;;;;;;;12;15.3;;;;;;;18.5;100;98620;;;;
2022/08/02 03:33:50;;;;;;;12;15.3;;;;;;;18.5;100;98620;;;;
2022/08/02 03:44:50;;;;;;;12;15.3;;;;;;;18.5;100;98630;;;;
2022/08/02 03:54:50;;;;;;;15.3;18.6;;;;;;;18.4;100;98640;;;;
2022/08/02 04:05:50;;;;;;;15.3;18.6;;;;;;;18.4;100;98650;;;;
2022/08/02 04:16:50;;;;;;;15.3;18.6;;;;;;;18.5;100;98660;;;;
2022/08/02 04:27:50;;;;;;;15.2;18.9;;;;;;;18.6;100;98670;;;;
2022/08/02 04:37:50;;;;;;;15.2;18.9;;;;;;;18.6;100;98680;;;;
2022/08/02 04:48:50;;;;;;;15.2;18.9;;;;;;;18.7;100;98680;;;;
2022/08/02 04:59:50;;;;;;;14.5;17.2;;;;;;;18.7;100;98690;;;;
2022/08/02 05:10:50;;;;;;;14.5;17.2;;;;;;;18.8;100;98700;;;;
2022/08/02 05:20:50;;;;;;;14.5;17.2;;;;;;;19.1;100;98710;;;;
2022/08/02 05:30:50;;;;;;;14.4;16.4;;;;;;;19.1;100;98710;;;;
2022/08/02 05:41:50;;;;;;;14.4;16.4;;;;;;;19.1;100;98710;;;;
2022/08/02 05:51:50;;;;;;;14.4;16.4;;;;;;;19.5;100;98720;;;;
2022/08/02 06:02:50;;;;;;;17.1;20.2;;;;;;;19.6;100;98730;;;;
2022/08/02 06:12:50;;;;;;;17.1;20.2;;;;;;;20.2;100;98740;;;;
2022/08/02 06:23:50;;;;;;;16.5;20.9;;;;;;;20.3;100;98750;;;;
2022/08/02 06:33:50;;;;;;;16.5;20.9;;;;;;;20.5;100;98750;;;;
2022/08/02 06:43:50;;;;;;;16.5;20.9;;;;;;;20.5;100;98770;;;;
2022/08/02 06:53:50;;;;;;;12.3;17.1;;;;;;;21;100;98780;;;;
2022/08/02 07:04:50;;;;;;;12.3;17.1;;;;;;;21.8;100;98780;;;;
2022/08/02 07:14:50;;;;;;;12.3;17.1;;;;;;;22.2;100;98780;;;;
2022/08/02 07:24:50;;;;;;;9;12;;;;;;;22.7;100;98770;;;;
2022/08/02 07:35:50;;;;;;;9;12;;;;;;;22.7;100;98780;;;;
2022/08/02 07:45:50;;;;;;;9;12;;;;;;;22.6;100;98790;;;;
2022/08/02 07:56:52;;;;;;;7.5;10.1;;;;;;;23.1;100;98790;;;;
2022/08/02 08:06:51;;;;;;;7.5;10.1;;;;;;;23.1;100;98780;;;;
2022/08/02 08:17:50;;;;;;;7.5;10.1;;;;;;;22.9;100;98790;;;;
2022/08/02 08:27:50;;;;;;;6.9;9;;;;;;;22.9;100;98790;;;;
2022/08/02 08:37:51;;;;;;;6.9;9;;;;;;;22.9;100;98790;;;;
2022/08/02 08:48:50;;;;;;;6.9;9;;;;;;;23.1;100;98790;;;;
2022/08/02 08:58:50;;;;;;;5.2;7.3;;;;;;;23;100;98790;;;;
2022/08/02 09:09:50;;;;;;;5.2;7.3;;;;;;;23;100;98790;;;;
2022/08/02 09:19:50;;;;;;;5.2;7.3;;;;;;;23.3;100;98800;;;;
2022/08/02 09:29:50;;;;;;;3.8;8.1;;;;;;;23.1;100;98800;;;;
2022/08/02 09:40:50;;;;;;;3.8;8.1;;;;;;;23.8;100;98800;;;;
2022/08/02 09:51:50;;;;;;;3.8;8.1;;;;;;;25;100;98790;;;;
2022/08/02 10:02:50;;;;;;;3;5.1;;;;;;;24.2;100;98790;;;;
2022/08/02 10:12:50;;;;;;;3;5.1;;;;;;;24.4;100;98780;;;;
2022/08/02 10:22:50;;;;;;;3;5.1;;;;;;;25.3;100;98780;;;;
2022/08/02 10:32:50;;;;;;;3.7;6.1;;;;;;;25.6;100;98780;;;;
2022/08/02 10:42:50;;;;;;;3.7;6.1;;;;;;;25;100;98780;;;;
2022/08/02 10:53:50;;;;;;;4.1;7.1;;;;;;;25.3;100;98780;;;;
2022/08/02 11:04:50;;;;;;;4.1;7.1;;;;;;;26.5;100;98780;;;;
2022/08/02 11:14:50;;;;;;;4.1;7.1;;;;;;;25.3;100;98780;;;;
2022/08/02 11:25:51;;;;;;;4.9;7.6;;;;;;;25.1;100;98780;;;;
2022/08/02 11:36:50;;;;;;;4.9;7.6;;;;;;;25.9;100;98780;;;;
2022/08/02 11:46:50;;;;;;;4.9;7.6;;;;;;;25.5;100;98780;;;;
2022/08/02 11:56:50;;;;;;;6.9;10.8;;;;;;;25;100;98780;;;;
2022/08/02 12:06:50;;;;;;;6.9;10.8;;;;;;;25.6;100;98780;;;;
2022/08/02 12:27:50;;;;;;;6.9;8.9;;;;;;;25.6;100;98770;;;;
2022/08/02 12:37:50;;;;;;;6.9;8.9;;;;;;;25.8;100;98780;;;;
2022/08/02 12:47:50;;;;;;;6.9;8.9;;;;;;;25.6;100;98790;;;;
2022/08/02 12:58:50;;;;;;;8.9;13.3;;;;;;;26;100;98780;;;;
2022/08/02 13:09:50;;;;;;;8.9;13.3;;;;;;;25.9;100;98780;;;;
2022/08/02 13:20:50;;;;;;;8.9;13.3;;;;;;;26.6;100;98780;;;;
2022/08/02 13:31:50;;;;;;;7.9;11.2;;;;;;;26.6;100;98770;;;;
2022/08/02 13:41:50;;;;;;;7.9;11.2;;;;;;;26.3;100;98780;;;;
2022/08/02 13:51:50;;;;;;;7.9;11.2;;;;;;;26.2;100;98770;;;;
2022/08/02 14:02:50;;;;;;;7.4;9.6;;;;;;;26.7;100;98770;;;;
2022/08/02 14:12:50;;;;;;;7.4;9.6;;;;;;;27.1;100;98760;;;;
2022/08/02 14:23:50;;;;;;;5.4;8.2;;;;;;;27.4;100;98760;;;;
2022/08/02 14:33:50;;;;;;;5.4;8.2;;;;;;;27;100;98750;;;;
2022/08/02 14:44:06;;;;;;;5.4;8.2;;;;;;;26.6;100;98750;;;;
2022/08/02 14:53:50;;;;;;;5.5;7.5;;;;;;;26;100;98750;;;;
2022/08/02 15:04:50;;;;;;;5.5;7.5;;;;;;;27;100;98750;;;;
2022/08/02 15:14:52;;;;;;;5.5;7.5;;;;;;;26.9;100;98750;;;;
2022/08/02 15:24:50;;;;;;;3.8;6.7;;;;;;;31;89.1;98750;;;;
2022/08/02 15:35:50;;;;;;;3.8;6.7;;;;;;;31.9;83.7;98760;;;;
2022/08/02 15:45:50;;;;;;;3.8;6.7;;;;;;;32.4;76.8;98760;;;;
2022/08/02 15:56:50;;;;;;;5.2;8;;;;;;;30.9;78.4;98770;;;;
2022/08/02 16:07:50;;;;;;;5.2;8;;;;;;;31.7;74.1;98770;;;;
2022/08/02 16:17:50;;;;;;;5.2;8;;;;;;;30.7;77.4;98770;;;;
2022/08/02 16:28:50;;;;;;;4.9;8.2;;;;;;;28.3;88.4;98750;;;;
2022/08/02 16:39:50;;;;;;;4.9;8.2;;;;;;;27.2;89.9;98750;;;;
2022/08/02 16:50:50;;;;;;;4.9;8.2;;;;;;;26.2;95.3;98750;;;;
2022/08/02 17:00:50;;;;;;;4.4;6.8;;;;;;;26.5;95.9;98750;;;;
2022/08/02 17:11:51;;;;;;;4.4;6.8;;;;;;;25.9;99.7;98760;;;;
2022/08/02 17:21:50;;;;;;;4.4;6.8;;;;;;;26.1;100;98760;;;;
2022/08/02 17:32:50;;;;;;;4.5;8.6;;;;;;;25.5;100;98770;;;;
2022/08/02 17:43:50;;;;;;;4.5;8.6;;;;;;;24.9;100;98760;;;;
2022/08/02 17:54:50;;;;;;;4.6;8.3;;;;;;;24.4;100;98770;;;;
2022/08/02 18:04:50;;;;;;;4.6;8.3;;;;;;;23.7;100;98760;;;;
2022/08/02 18:15:51;;;;;;;4.6;8.3;;;;;;;23;100;98770;;;;
2022/08/02 18:25:50;;;;;;;6.3;8.3;;;;;;;22.2;100;98770;;;;
2022/08/02 18:35:50;;;;;;;6.3;8.3;;;;;;;21.6;100;98780;;;;
2022/08/02 18:46:50;;;;;;;6.3;8.3;;;;;;;21.1;100;98780;;;;
2022/08/02 18:56:51;;;;;;;5.9;9.3;;;;;;;20.7;100;98790;;;;
2022/08/02 19:06:51;;;;;;;5.9;9.3;;;;;;;20.3;100;98800;;;;
2022/08/02 19:16:50;;;;;;;5.9;9.3;;;;;;;20;100;98810;;;;
2022/08/02 19:27:50;;;;;;;6.1;10.5;;;;;;;19.6;100;98820;;;;
2022/08/02 19:37:50;;;;;;;6.1;10.5;;;;;;;19.4;100;98830;;;;
2022/08/02 19:48:50;;;;;;;6.1;10.5;;;;;;;18.8;100;98830;;;;
2022/08/02 19:58:52;;;;;;;7.7;12.5;;;;;;;18.7;100;98840;;;;
2022/08/02 20:09:50;;;;;;;7.7;12.5;;;;;;;18.5;100;98840;;;;
2022/08/02 20:19:50;;;;;;;7.7;12.5;;;;;;;18.4;100;98840;;;;
2022/08/02 20:29:50;;;;;;;8.5;13.5;;;;;;;18.2;100;98840;;;;
2022/08/02 20:40:50;;;;;;;8.5;13.5;;;;;;;17.9;100;98830;;;;
2022/08/02 20:50:51;;;;;;;8.5;13.5;;;;;;;17.9;100;98830;;;;
2022/08/02 21:01:50;;;;;;;8.9;11.6;;;;;;;17.8;100;98830;;;;
2022/08/02 21:11:50;;;;;;;8.9;11.6;;;;;;;17.6;100;98830;;;;
2022/08/02 21:22:50;;;;;;;8.9;11.6;;;;;;;17.5;100;98820;;;;
2022/08/02 21:32:53;;;;;;;9.7;12.2;;;;;;;17.2;100;98830;;;;
2022/08/02 21:43:50;;;;;;;9.7;12.2;;;;;;;17.2;100;98830;;;;
2022/08/02 21:53:50;;;;;;;9.7;12.2;;;;;;;17.1;100;98830;;;;
2022/08/02 22:04:50;;;;;;;12.4;13.9;;;;;;;17;100;98830;;;;
2022/08/02 22:14:50;;;;;;;12.4;13.9;;;;;;;16.8;100;98830;;;;
2022/08/02 22:24:50;;;;;;;13.4;15.2;;;;;;;16.7;100;98830;;;;
2022/08/02 22:35:50;;;;;;;13.4;15.2;;;;;;;16.6;100;98830;;;;
2022/08/02 22:45:50;;;;;;;13.4;15.2;;;;;;;16.5;100;98840;;;;
2022/08/02 22:55:50;;;;;;;12.6;14.7;;;;;;;16.3;100;98840;;;;
2022/08/02 23:05:50;;;;;;;12.6;14.7;;;;;;;16.2;100;98850;;;;
2022/08/02 23:26:50;;;;;;;14.2;17.2;;;;;;;16;100;98840;;;;
2022/08/02 23:37:50;;;;;;;14.2;17.2;;;;;;;15.8;100;98840;;;;
2022/08/02 23:47:50;;;;;;;14.2;17.2;;;;;;;15.8;100;98830;;;;
2022/08/02 23:58:50;;;;;;;14.1;16;;;;;;;15.7;100;98830;;;;
